Mt Bachelor previous 24hr weather report

For range Jul 6 2015 1:52 AM PDT to Jul 7 2015 1:52 AM PDT.

Date and time 6300' Base Temp 7800' Pine Temp 8000' Northwest Temp 9000' Summit Temp Base RH Pine RH Summit RH Pine Wind Avg Pine Wind Max Pine Wind Dir Northwest Wind Avg Northwest Wind Max Northwest Wind Dir Summit Wind Avg Summit Wind Max Summit Wind Dir Snowdepth
Jul 7 2015 1:00 AM PDT 13.42 -6999.0 n/a 63.31 n/a -6999 41 0 0 0 n/a n/a n/a 2 4 240 n/a
Jul 7 2015 12:00 AM PDT 13.38 -6999.0 n/a 64.36 n/a -6999 39 0 0 0 n/a n/a n/a 4 7 293 n/a
Jul 6 2015 11:00 PM PDT 13.35 -6999.0 n/a 64.28 n/a -6999 41 0 0 0 n/a n/a n/a 3 5 293 n/a
Jul 6 2015 10:00 PM PDT 13.31 -6999.0 n/a 64.54 n/a -6999 41 0 0 0 n/a n/a n/a 5 9 293 n/a
Jul 6 2015 9:00 PM PDT 13.27 -6999.0 n/a 62.54 n/a -6999 50 0 0 0 n/a n/a n/a 5 14 293 n/a
Jul 6 2015 8:00 PM PDT 13.23 -6999.0 n/a 56.31 n/a -6999 65 0 0 0 n/a n/a n/a 8 12 293 n/a
Jul 6 2015 7:00 PM PDT 13.21 -6999.0 n/a 61.39 n/a -6999 53 0 0 0 n/a n/a n/a 13 17 293 n/a
Jul 6 2015 6:00 PM PDT 13.17 -6999.0 n/a 65.62 n/a -6999 45 0 0 0 n/a n/a n/a 16 22 293 n/a
Jul 6 2015 5:00 PM PDT 13.14 -6999.0 n/a 69.24 n/a -6999 41 0 0 0 n/a n/a n/a 23 31 293 n/a
Jul 6 2015 4:00 PM PDT 13.1 -6999.0 n/a 69.7 n/a -6999 39 0 0 0 n/a n/a n/a 14 21 293 n/a
Jul 6 2015 3:00 PM PDT 13.1 -6999.0 n/a 68.34 n/a -6999 30 0 0 0 n/a n/a n/a 12 22 293 n/a
Jul 6 2015 2:00 PM PDT 13.13 -6999.0 n/a 67.09 n/a -6999 34 0 0 0 n/a n/a n/a 13 23 293 n/a
Jul 6 2015 1:00 PM PDT 13.13 -6999.0 n/a 66.39 n/a -6999 38 0 0 0 n/a n/a n/a 16 26 293 n/a
Jul 6 2015 12:00 PM PDT 13.13 -6999.0 n/a 66.02 n/a -6999 36 0 0 0 n/a n/a n/a 13 24 293 n/a
Jul 6 2015 11:00 AM PDT 13.18 -6999.0 n/a 64.98 n/a -6999 38 0 0 0 n/a n/a n/a 11 17 293 n/a
Jul 6 2015 10:00 AM PDT 13.23 -6999.0 n/a 63.68 n/a -6999 40 0 0 0 n/a n/a n/a 11 17 293 n/a
Jul 6 2015 9:00 AM PDT 13.35 -6999.0 n/a 62.12 n/a -6999 46 0 0 0 n/a n/a n/a 11 18 293 n/a
Jul 6 2015 8:00 AM PDT 13.44 -6999.0 n/a 59.99 n/a -6999 51 0 0 0 n/a n/a n/a 1 3 293 n/a
Jul 6 2015 7:00 AM PDT 13.47 -6999.0 n/a 58.57 n/a -6999 55 0 0 0 n/a n/a n/a 5 7 293 n/a
Jul 6 2015 6:00 AM PDT 13.47 -6999.0 n/a 57.81 n/a -6999 53 0 0 0 n/a n/a n/a 7 8 293 n/a
Jul 6 2015 5:00 AM PDT 13.47 -6999.0 n/a 58.09 n/a -6999 54 0 0 0 n/a n/a n/a 5 7 293 n/a
Jul 6 2015 4:00 AM PDT 13.46 -6999.0 n/a 58.26 n/a -6999 52 0 0 0 n/a n/a n/a 3 7 293 n/a
Jul 6 2015 3:00 AM PDT 13.43 -6999.0 n/a 58.76 n/a -6999 52 0 0 0 n/a n/a n/a 12 14 293 n/a
Jul 6 2015 2:00 AM PDT 13.41 -6999.0 n/a 59.34 n/a -6999 50 0 0 0 n/a n/a n/a 11 14 293 n/a